Time;durP1;ratioP1;P1;durP2;ratioP2;P2;SDS_P1;SDS_P2;PMS_P1;PMS_P2;Temp;Humidity;BMP_temperature;BMP_pressure;BME280_temperature;BME280_humidity;BME280_pressure;Samples;Min_cycle;Max_cycle;Signal;HPM_P1;HPM_P2
2021/05/15 00:01:01;;;;;;;10.70;6.65;;;;;;;9.36;85.43;99032.72;5054757;28;20045;-64
2021/05/15 00:03:32;;;;;;;12.45;6.38;;;;;;;9.35;85.49;99032.72;5054447;28;20398;-64
2021/05/15 00:06:03;;;;;;;10.27;6.20;;;;;;;9.39;85.51;99027.59;5054449;28;20056;-64
2021/05/15 00:08:35;;;;;;;9.52;6.10;;;;;;;9.42;86.51;99030.13;5054512;28;20494;-64
2021/05/15 00:11:02;;;;;;;9.75;5.90;;;;;;;9.44;86.38;99036.06;5054480;28;20060;-65
2021/05/15 00:13:32;;;;;;;9.77;5.70;;;;;;;9.43;86.36;99030.97;5054298;28;20053;-64
2021/05/15 00:16:00;;;;;;;9.90;6.63;;;;;;;9.45;86.06;99030.09;5054481;28;20525;-64
2021/05/15 00:18:31;;;;;;;11.57;5.93;;;;;;;9.46;86.44;99041.13;5054417;28;20072;-63
2021/05/15 00:21:01;;;;;;;9.85;5.97;;;;;;;9.43;86.38;99041.16;5054474;28;20392;-64
2021/05/15 00:23:32;;;;;;;9.40;6.05;;;;;;;9.45;86.85;99050.47;5054542;28;20049;-64
2021/05/15 00:26:04;;;;;;;9.95;6.22;;;;;;;9.46;86.98;99051.31;5054053;28;20067;-63
2021/05/15 00:28:34;;;;;;;9.65;6.03;;;;;;;9.35;86.83;99046.31;5054512;28;20056;-64
2021/05/15 00:31:05;;;;;;;9.98;6.63;;;;;;;9.41;86.89;99048.81;5054524;28;20488;-64
2021/05/15 00:33:35;;;;;;;8.48;6.10;;;;;;;9.37;86.62;99042.06;5054186;28;20045;-64
2021/05/15 00:36:04;;;;;;;8.38;5.40;;;;;;;9.32;87.60;99043.78;5054429;28;20132;-63
2021/05/15 00:38:34;;;;;;;11.05;7.13;;;;;;;9.21;86.84;99053.16;5054081;28;20376;-63
2021/05/15 00:41:01;;;;;;;9.43;5.78;;;;;;;9.17;87.29;99043.84;5054073;28;20510;-64
2021/05/15 00:43:33;;;;;;;9.20;5.72;;;;;;;9.29;87.54;99051.44;5054476;28;20067;-63
2021/05/15 00:46:03;;;;;;;10.68;5.60;;;;;;;9.30;87.76;99055.69;5053773;28;20053;-63
2021/05/15 00:48:34;;;;;;;7.78;5.50;;;;;;;9.28;88.17;99052.31;5054275;28;20060;-63
2021/05/15 00:51:05;;;;;;;9.68;6.22;;;;;;;9.18;87.62;99040.47;5053200;28;20049;-63
2021/05/15 00:53:36;;;;;;;10.68;5.90;;;;;;;9.14;87.66;99043.03;5053283;28;20087;-64
2021/05/15 00:56:03;;;;;;;10.07;6.15;;;;;;;9.17;87.88;99043.84;5053866;28;20097;-63
2021/05/15 00:58:35;;;;;;;9.82;6.15;;;;;;;9.16;87.62;99037.09;5054323;28;20045;-63
2021/05/15 01:01:06;;;;;;;10.38;6.50;;;;;;;9.20;88.27;99043.84;5053821;28;20044;-63
2021/05/15 01:03:34;;;;;;;9.70;6.57;;;;;;;9.24;88.68;99042.97;5053693;28;20056;-63
2021/05/15 01:06:05;;;;;;;8.73;6.15;;;;;;;9.24;88.43;99040.41;5053425;28;20048;-63
2021/05/15 01:08:36;;;;;;;10.90;6.57;;;;;;;9.26;88.91;99038.72;5053762;28;20076;-63
2021/05/15 01:11:06;;;;;;;12.32;6.88;;;;;;;9.29;88.51;99048.88;5053624;28;20045;-63
2021/05/15 01:13:35;;;;;;;11.60;6.57;;;;;;;9.26;88.78;99038.72;5053404;28;20056;-63
2021/05/15 01:16:07;;;;;;;9.30;6.80;;;;;;;9.25;89.05;99049.75;5053860;28;20044;-63
2021/05/15 01:18:37;;;;;;;10.15;6.03;;;;;;;9.18;88.08;99050.66;5053416;28;20057;-63
2021/05/15 01:21:07;;;;;;;9.48;5.88;;;;;;;9.18;88.31;99054.91;5053588;28;20080;-63
2021/05/15 01:23:38;;;;;;;8.13;4.67;;;;;;;9.13;88.51;99034.56;5053322;28;20041;-63
2021/05/15 01:26:16;;;;;;;8.25;5.03;;;;;;;9.10;88.51;99046.44;5053422;28;20115;-62
2021/05/15 01:28:48;;;;;;;7.95;4.88;;;;;;;9.06;88.53;99040.53;5053510;28;20061;-62
2021/05/15 01:31:17;;;;;;;14.05;5.65;;;;;;;8.98;88.60;99042.25;5053776;28;20072;-62
2021/05/15 01:33:47;;;;;;;10.50;5.78;;;;;;;8.89;88.78;99042.31;5053393;28;20072;-63
2021/05/15 01:36:16;;;;;;;12.68;5.90;;;;;;;8.94;88.33;99048.22;5053433;28;20053;-63
2021/05/15 01:38:47;;;;;;;9.23;5.43;;;;;;;8.98;88.69;99043.94;5053464;28;20146;-63
2021/05/15 01:41:17;;;;;;;12.82;5.47;;;;;;;8.98;89.02;99037.16;5053456;28;20056;-62
2021/05/15 01:43:50;;;;;;;15.90;6.68;;;;;;;8.99;87.90;99043.97;5053380;28;20187;-63
2021/05/15 01:46:18;;;;;;;10.85;5.78;;;;;;;8.94;88.46;99045.69;5053579;28;20486;-62
2021/05/15 01:48:48;;;;;;;12.07;6.10;;;;;;;8.94;88.90;99043.13;5053265;28;20487;-62
2021/05/15 01:51:17;;;;;;;15.15;10.20;;;;;;;8.90;88.49;99049.06;5052902;28;20402;-62
2021/05/15 01:53:49;;;;;;;8.37;5.67;;;;;;;8.87;88.59;99049.09;5053285;28;20045;-63
2021/05/15 01:56:19;;;;;;;13.20;7.72;;;;;;;8.84;89.07;99045.72;5053527;28;20662;-62
2021/05/15 01:58:50;;;;;;;11.05;8.02;;;;;;;8.84;88.94;99038.94;5053180;28;20047;-62
2021/05/15 02:01:17;;;;;;;9.10;5.88;;;;;;;8.85;88.53;99035.56;5052972;28;20110;-62
2021/05/15 02:03:49;;;;;;;8.43;5.65;;;;;;;8.82;88.56;99034.72;5054462;28;20045;-62
2021/05/15 02:06:18;;;;;;;9.27;5.65;;;;;;;8.82;88.22;99039.78;5056624;28;20048;-63
2021/05/15 02:08:47;;;;;;;7.75;4.50;;;;;;;8.79;88.46;99040.66;5056869;28;20044;-63
2021/05/15 02:11:15;;;;;;;9.00;5.38;;;;;;;8.71;88.58;99038.13;5056857;28;20045;-62
2021/05/15 02:13:47;;;;;;;9.07;5.53;;;;;;;8.67;88.21;99030.53;5056735;28;20083;-62
2021/05/15 02:16:14;;;;;;;7.45;5.28;;;;;;;8.70;89.04;99033.06;5056690;28;20474;-63
2021/05/15 02:18:45;;;;;;;9.68;5.63;;;;;;;8.68;88.45;99029.69;5056570;28;20045;-62
2021/05/15 02:21:13;;;;;;;12.15;6.22;;;;;;;8.72;88.58;99023.72;5056712;28;20063;-62
2021/05/15 02:23:44;;;;;;;8.80;5.60;;;;;;;8.68;88.69;99032.22;5056919;28;20069;-62
2021/05/15 02:26:15;;;;;;;9.10;5.35;;;;;;;8.65;88.78;99030.53;5056348;28;20390;-62
2021/05/15 02:28:46;;;;;;;9.20;6.00;;;;;;;8.66;88.36;99034.75;5056563;28;20061;-62
2021/05/15 02:31:16;;;;;;;11.27;5.47;;;;;;;8.59;88.80;99027.19;5056404;28;20136;-62
2021/05/15 02:33:49;;;;;;;7.90;5.70;;;;;;;8.58;88.18;99031.41;5056414;28;20053;-62
2021/05/15 02:36:17;;;;;;;9.23;5.40;;;;;;;8.59;88.14;99032.25;5056402;28;20052;-62
2021/05/15 02:38:50;;;;;;;8.38;5.63;;;;;;;8.57;88.70;99028.84;5038320;28;20524;-61
2021/05/15 02:41:18;;;;;;;9.63;6.85;;;;;;;8.60;89.08;99028.84;5056122;28;20052;-62
2021/05/15 02:43:51;;;;;;;9.85;5.80;;;;;;;8.69;88.80;99026.28;5056332;28;20109;-62
2021/05/15 02:46:18;;;;;;;9.05;5.35;;;;;;;8.66;88.85;99023.75;5056097;28;20504;-63
2021/05/15 02:48:49;;;;;;;7.95;5.53;;;;;;;8.62;89.24;99033.09;5056085;28;20098;-62
2021/05/15 02:51:17;;;;;;;10.10;5.88;;;;;;;8.61;89.29;99030.56;5055055;28;20131;-62
2021/05/15 02:53:48;;;;;;;10.57;5.88;;;;;;;8.63;89.00;99023.75;5056036;28;20075;-62
2021/05/15 02:56:16;;;;;;;11.57;5.63;;;;;;;8.60;89.09;99033.94;5056003;28;20064;-62
2021/05/15 02:58:46;;;;;;;9.38;6.13;;;;;;;8.62;89.56;99025.44;5055727;28;20041;-63
2021/05/15 03:01:19;;;;;;;9.85;5.60;;;;;;;8.66;89.85;99029.66;5056132;28;20049;-62
2021/05/15 03:03:49;;;;;;;9.68;5.88;;;;;;;8.68;89.12;99027.13;5055915;28;20182;-62
2021/05/15 03:06:16;;;;;;;9.60;5.95;;;;;;;8.67;90.06;99025.44;5055599;28;20099;-63
2021/05/15 03:08:47;;;;;;;10.57;5.78;;;;;;;8.65;89.17;99022.06;5055495;28;20399;-63
2021/05/15 03:11:18;;;;;;;10.48;5.93;;;;;;;8.64;89.93;99027.97;5055780;28;20063;-63
2021/05/15 03:13:49;;;;;;;9.75;6.20;;;;;;;8.64;88.91;99020.34;5055618;28;20061;-63
2021/05/15 03:16:19;;;;;;;8.30;5.40;;;;;;;8.63;89.81;99018.69;5055116;28;20387;-63
2021/05/15 03:18:50;;;;;;;12.07;5.57;;;;;;;8.62;89.65;99027.16;5055673;28;20120;-63
2021/05/15 03:21:20;;;;;;;9.50;5.82;;;;;;;8.57;89.41;99034.78;5055548;28;20501;-63
2021/05/15 03:23:51;;;;;;;10.75;5.88;;;;;;;8.59;89.02;99028.00;5071212;28;20064;-63
2021/05/15 03:26:20;;;;;;;8.93;5.32;;;;;;;8.56;89.10;99037.34;5055131;28;20045;-62
2021/05/15 03:28:50;;;;;;;8.02;5.28;;;;;;;8.58;89.87;99046.66;5055303;28;20044;-63
2021/05/15 03:31:21;;;;;;;10.07;5.57;;;;;;;8.53;89.76;99053.47;5055278;28;20068;-62
2021/05/15 03:33:51;;;;;;;13.18;5.40;;;;;;;8.51;89.13;99054.31;5055261;28;20063;-62
2021/05/15 03:36:22;;;;;;;8.75;5.28;;;;;;;8.49;89.46;99061.09;5055284;28;20057;-62
2021/05/15 03:38:53;;;;;;;10.05;5.63;;;;;;;8.48;89.36;99054.31;5055211;28;20055;-63
2021/05/15 03:41:22;;;;;;;9.43;4.90;;;;;;;8.42;89.20;99060.25;5055226;28;20418;-63
2021/05/15 03:43:52;;;;;;;11.95;5.88;;;;;;;8.35;89.35;99043.31;5054814;28;20045;-62
2021/05/15 03:46:20;;;;;;;10.07;5.82;;;;;;;8.40;89.62;99063.66;5055057;28;20151;-62
2021/05/15 03:48:50;;;;;;;11.63;6.07;;;;;;;8.41;89.45;99058.59;5054740;28;20041;-62
2021/05/15 03:51:20;;;;;;;8.48;5.28;;;;;;;8.45;90.07;99056.84;5054174;28;20057;-62
2021/05/15 03:53:51;;;;;;;8.70;5.55;;;;;;;8.46;89.72;99061.09;5054913;28;20052;-63
2021/05/15 03:56:22;;;;;;;8.85;5.28;;;;;;;8.49;89.58;99063.66;5054875;28;20049;-62
2021/05/15 03:58:54;;;;;;;9.98;5.93;;;;;;;8.57;89.07;99064.47;5055191;28;20053;-62
2021/05/15 04:01:21;;;;;;;11.43;6.55;;;;;;;8.65;89.98;99067.84;5054830;28;20053;-62
2021/05/15 04:03:51;;;;;;;9.43;6.05;;;;;;;8.71;89.73;99067.81;5054400;28;20041;-63
2021/05/15 04:06:22;;;;;;;8.15;5.18;;;;;;;8.72;88.97;99069.50;5054476;28;20041;-64
2021/05/15 04:08:53;;;;;;;9.68;6.07;;;;;;;8.73;89.94;99061.03;5054646;28;20102;-64
2021/05/15 04:11:32;;;;;;;9.20;5.90;;;;;;;8.78;88.94;99070.31;5054595;28;20552;-63
2021/05/15 04:14:19;;;;;;;8.65;5.85;;;;;;;8.83;89.88;99070.31;5054444;28;20402;-63
2021/05/15 04:17:13;;;;;;;7.97;5.07;;;;;;;8.81;89.50;99074.56;5054453;28;20037;-64
2021/05/15 04:19:49;;;;;;;8.23;4.85;;;;;;;8.75;89.69;99074.59;5032562;28;20065;-63
2021/05/15 04:22:20;;;;;;;7.88;5.28;;;;;;;8.67;89.40;99072.06;5032350;28;20469;-63
2021/05/15 04:24:50;;;;;;;9.40;5.22;;;;;;;8.65;89.23;99068.69;5032471;28;20083;-63
2021/05/15 04:27:23;;;;;;;8.25;5.28;;;;;;;8.73;89.86;99081.38;5031509;28;20514;-63
2021/05/15 04:29:55;;;;;;;11.60;5.55;;;;;;;8.72;89.59;99079.69;5032551;28;20038;-63
2021/05/15 04:32:25;;;;;;;8.27;5.72;;;;;;;8.73;89.69;99086.47;5032509;28;20054;-63
2021/05/15 04:34:59;;;;;;;11.77;6.82;;;;;;;8.85;89.62;99081.34;5032391;28;20102;-63
2021/05/15 04:37:30;;;;;;;9.88;6.10;;;;;;;8.86;89.04;99080.47;5038878;28;20076;-63
2021/05/15 04:40:04;;;;;;;9.07;5.57;;;;;;;8.93;89.47;99079.59;5054040;28;20486;-64
2021/05/15 04:42:37;;;;;;;9.27;5.72;;;;;;;9.09;88.78;99091.44;5054361;28;20049;-64
2021/05/15 04:45:07;;;;;;;8.68;5.40;;;;;;;9.07;89.96;99088.03;5053879;28;20048;-64
2021/05/15 04:47:39;;;;;;;8.55;5.30;;;;;;;9.03;89.11;99086.34;5053938;28;20052;-65
2021/05/15 04:50:11;;;;;;;9.00;5.30;;;;;;;9.08;89.17;99071.91;5053423;28;20053;-64
2021/05/15 04:52:42;;;;;;;9.02;5.63;;;;;;;9.16;89.81;99080.38;5053617;28;20044;-64
2021/05/15 04:55:10;;;;;;;9.50;6.13;;;;;;;9.23;89.76;99083.72;5054066;28;20072;-65
2021/05/15 04:57:38;;;;;;;7.97;5.60;;;;;;;9.21;89.30;99086.25;5053797;28;20053;-63
2021/05/15 05:00:10;;;;;;;10.00;6.07;;;;;;;9.13;88.91;99070.19;5053815;28;20463;-63
2021/05/15 05:02:40;;;;;;;9.20;5.53;;;;;;;9.22;89.55;99082.88;5053771;28;20044;-63
2021/05/15 05:05:11;;;;;;;8.00;5.43;;;;;;;9.24;89.20;99093.88;5053687;28;20072;-63
2021/05/15 05:07:42;;;;;;;10.02;6.25;;;;;;;9.30;89.36;99096.41;5053693;28;20052;-64
2021/05/15 05:10:14;;;;;;;9.25;6.05;;;;;;;9.31;88.96;99092.16;5053705;28;20053;-62
2021/05/15 05:12:45;;;;;;;11.80;6.40;;;;;;;9.28;88.76;99093.03;5053723;28;20045;-63
2021/05/15 05:15:16;;;;;;;9.35;5.95;;;;;;;9.24;88.99;99086.25;5053659;28;20083;-63
2021/05/15 05:17:47;;;;;;;10.25;6.93;;;;;;;9.25;89.13;99098.13;5053615;28;20383;-64
2021/05/15 05:20:18;;;;;;;10.52;6.63;;;;;;;9.27;89.30;99101.53;5053623;28;20057;-63
2021/05/15 05:22:49;;;;;;;10.50;6.80;;;;;;;9.38;89.03;99112.47;5053803;28;20056;-64
2021/05/15 05:25:20;;;;;;;11.55;6.80;;;;;;;9.36;89.10;99109.09;5053450;28;20080;-64
2021/05/15 05:27:52;;;;;;;12.25;7.15;;;;;;;9.34;89.24;99118.47;5053200;28;20063;-63
2021/05/15 05:30:23;;;;;;;12.38;7.07;;;;;;;9.34;88.25;99107.41;5053744;28;20049;-64
2021/05/15 05:32:57;;;;;;;12.10;7.43;;;;;;;9.39;89.12;99111.66;5053741;28;20487;-64
2021/05/15 05:35:28;;;;;;;12.05;7.50;;;;;;;9.45;88.80;99103.97;5053524;28;20161;-63
2021/05/15 05:37:58;;;;;;;12.55;7.28;;;;;;;9.51;89.12;99108.19;5053846;28;20048;-64
2021/05/15 05:40:29;;;;;;;11.68;7.47;;;;;;;9.59;88.42;99108.13;5057753;28;20064;-63
2021/05/15 05:43:00;;;;;;;12.35;7.28;;;;;;;9.54;88.53;99107.31;5057357;28;20040;-65
2021/05/15 05:45:31;;;;;;;13.57;7.95;;;;;;;9.56;88.16;99103.06;5057409;28;20048;-63
2021/05/15 05:48:02;;;;;;;13.07;7.72;;;;;;;9.59;88.57;99097.94;5057222;28;20049;-64
2021/05/15 05:50:35;;;;;;;13.10;7.38;;;;;;;9.61;88.12;99097.09;5056517;28;20057;-63
2021/05/15 05:53:06;;;;;;;11.90;7.20;;;;;;;9.64;88.04;99097.06;5057210;28;20076;-63
2021/05/15 05:55:37;;;;;;;12.38;7.20;;;;;;;9.75;88.38;99099.53;5057197;28;20494;-64
2021/05/15 05:58:09;;;;;;;12.43;7.93;;;;;;;9.90;88.07;99094.34;5057315;28;20498;-64
2021/05/15 06:00:39;;;;;;;14.07;7.93;;;;;;;10.01;88.13;99097.63;5057030;28;20049;-64
2021/05/15 06:03:10;;;;;;;13.27;7.65;;;;;;;10.13;88.10;99092.47;5057061;28;20072;-64
2021/05/15 06:05:41;;;;;;;13.43;8.45;;;;;;;10.27;88.63;99090.63;5057039;28;20486;-64
2021/05/15 06:08:12;;;;;;;13.68;8.05;;;;;;;10.36;88.08;99093.13;5056852;28;20560;-65
2021/05/15 06:10:43;;;;;;;14.13;8.30;;;;;;;10.43;87.60;99086.25;5039117;28;20486;-64
2021/05/15 06:13:15;;;;;;;15.25;8.23;;;;;;;10.63;87.98;99085.19;5056836;28;20489;-63
2021/05/15 06:15:46;;;;;;;14.27;9.15;;;;;;;10.75;87.32;99090.16;5056799;28;20060;-64
2021/05/15 06:18:16;;;;;;;18.15;9.82;;;;;;;10.84;87.53;99085.81;5056586;28;20053;-63
2021/05/15 06:20:45;;;;;;;16.70;9.00;;;;;;;10.93;86.94;99093.38;5056886;28;20086;-64
2021/05/15 06:23:13;;;;;;;17.02;9.55;;;;;;;10.92;86.46;99094.25;5056614;28;20124;-63
2021/05/15 06:25:44;;;;;;;17.92;9.45;;;;;;;10.86;86.61;99101.97;5056364;28;20045;-63
2021/05/15 06:28:17;;;;;;;17.27;10.25;;;;;;;11.01;86.53;99086.47;5057170;28;20048;-64
2021/05/15 06:30:48;;;;;;;17.45;10.68;;;;;;;11.24;86.42;99097.22;5056491;28;20048;-63
2021/05/15 06:33:15;;;;;;;20.67;9.90;;;;;;;11.46;86.12;99090.97;5056478;28;20238;-65
2021/05/15 06:35:53;;;;;;;15.70;9.23;;;;;;;11.59;85.71;99092.47;5056440;28;20048;-64
2021/05/15 06:38:22;;;;;;;16.52;9.70;;;;;;;11.70;85.57;99090.66;5056113;28;20048;-64
2021/05/15 06:40:52;;;;;;;15.68;10.05;;;;;;;11.79;84.98;99090.53;5056517;28;20044;-63
2021/05/15 06:43:21;;;;;;;17.58;10.35;;;;;;;11.92;84.72;99096.31;5056568;28;20052;-64
2021/05/15 06:45:48;;;;;;;18.85;11.02;;;;;;;12.23;84.71;99087.25;5055748;28;20044;-64
2021/05/15 06:48:17;;;;;;;18.48;11.85;;;;;;;12.52;84.22;99089.31;5056071;28;20055;-67
2021/05/15 06:50:47;;;;;;;17.00;10.10;;;;;;;12.66;83.79;99092.47;5054334;28;20052;-64
2021/05/15 06:53:18;;;;;;;20.02;11.48;;;;;;;12.86;83.20;99097.22;5055967;28;20055;-64
2021/05/15 06:55:45;;;;;;;18.48;10.48;;;;;;;12.95;82.74;99097.88;5055938;28;20045;-64
2021/05/15 06:58:14;;;;;;;18.33;11.18;;;;;;;13.17;82.61;99106.00;5055730;28;20471;-63
2021/05/15 07:00:45;;;;;;;17.77;11.05;;;;;;;13.44;81.69;99103.69;5055928;28;20041;-64
2021/05/15 07:03:16;;;;;;;19.05;11.60;;;;;;;13.88;81.57;99101.84;5055873;28;20045;-64
2021/05/15 07:05:47;;;;;;;17.00;10.45;;;;;;;13.97;79.75;99101.63;5055668;28;20136;-63
2021/05/15 07:08:18;;;;;;;16.23;11.25;;;;;;;13.87;79.64;99093.31;5055867;28;20052;-64
2021/05/15 07:10:49;;;;;;;16.30;10.93;;;;;;;13.97;79.27;99092.22;5055708;28;20128;-65
2021/05/15 07:13:17;;;;;;;18.88;12.18;;;;;;;14.05;78.43;99090.31;5055959;28;20485;-65
2021/05/15 07:15:49;;;;;;;17.15;12.05;;;;;;;14.17;77.93;99089.19;5055639;28;20071;-64
2021/05/15 07:18:20;;;;;;;17.58;11.30;;;;;;;14.24;77.57;99095.84;5055584;28;20049;-63
2021/05/15 07:20:51;;;;;;;18.85;11.77;;;;;;;14.46;77.63;99096.19;5056179;28;20398;-65
2021/05/15 07:23:22;;;;;;;15.05;11.10;;;;;;;14.73;77.07;99092.91;5055475;28;20118;-65
2021/05/15 07:25:52;;;;;;;14.60;9.65;;;;;;;14.95;76.53;99082.88;5055327;28;20091;-65
2021/05/15 07:28:20;;;;;;;16.08;11.15;;;;;;;15.17;76.31;99092.47;5055354;28;20057;-66
2021/05/15 07:30:49;;;;;;;15.40;11.00;;;;;;;15.41;75.96;99096.06;5055336;28;20048;-66
2021/05/15 07:33:19;;;;;;;15.50;11.07;;;;;;;15.59;75.03;99084.44;5055640;28;20049;-65
2021/05/15 07:35:47;;;;;;;13.95;10.60;;;;;;;15.65;74.65;99095.38;5054980;28;20060;-66
2021/05/15 07:38:15;;;;;;;15.52;11.00;;;;;;;15.85;73.90;99098.19;5055267;28;20382;-65
2021/05/15 07:40:42;;;;;;;16.17;11.18;;;;;;;16.00;73.62;99095.09;5055215;28;20091;-66
2021/05/15 07:43:13;;;;;;;14.48;10.45;;;;;;;16.21;73.85;99090.16;5055156;28;20041;-64
2021/05/15 07:45:41;;;;;;;14.45;10.13;;;;;;;16.16;72.23;99102.34;5055232;28;20049;-64
2021/05/15 07:48:10;;;;;;;15.20;11.00;;;;;;;16.17;72.63;99088.59;5054978;28;20068;-65
2021/05/15 07:50:40;;;;;;;15.77;10.30;;;;;;;16.42;72.11;99089.44;5054166;28;20049;-65
2021/05/15 07:53:11;;;;;;;12.70;9.25;;;;;;;16.25;71.80;99086.56;5054879;28;20061;-66
2021/05/15 07:55:43;;;;;;;14.38;9.63;;;;;;;16.35;72.26;99077.66;5054608;28;20052;-66
2021/05/15 07:58:14;;;;;;;13.93;10.35;;;;;;;16.66;72.07;99068.00;5054768;28;20056;-65
2021/05/15 08:00:41;;;;;;;15.85;10.20;;;;;;;16.83;71.02;99070.84;5054748;28;20080;-65
2021/05/15 08:03:13;;;;;;;19.17;11.82;;;;;;;16.93;70.37;99072.19;5054616;28;20098;-65
2021/05/15 08:05:40;;;;;;;17.38;10.70;;;;;;;17.04;70.03;99079.53;5054147;28;20049;-65
2021/05/15 08:08:11;;;;;;;17.88;12.05;;;;;;;17.09;69.08;99067.31;5054535;28;20055;-64
2021/05/15 08:10:42;;;;;;;16.85;11.82;;;;;;;17.27;68.60;99077.81;5054584;28;20048;-64
2021/05/15 08:13:13;;;;;;;18.88;12.27;;;;;;;17.47;68.41;99065.91;5054791;28;20048;-64
2021/05/15 08:15:45;;;;;;;14.98;10.30;;;;;;;17.69;67.92;99069.31;5054498;28;20086;-66
2021/05/15 08:18:16;;;;;;;17.33;10.93;;;;;;;17.99;67.34;99068.13;5054411;28;20137;-65
2021/05/15 08:20:47;;;;;;;11.23;7.60;;;;;;;18.14;66.25;99075.22;5054403;28;20166;-65
2021/05/15 08:23:18;;;;;;;14.27;8.75;;;;;;;18.18;65.63;99058.72;5054361;28;20067;-65
2021/05/15 08:25:48;;;;;;;16.05;9.70;;;;;;;18.28;65.27;99065.19;5054221;28;20037;-64
2021/05/15 08:28:19;;;;;;;11.52;8.30;;;;;;;18.46;64.72;99072.19;5054047;28;20056;-64
2021/05/15 08:30:47;;;;;;;10.98;7.03;;;;;;;18.42;63.71;99065.44;5054224;28;20049;-63
2021/05/15 08:33:18;;;;;;;10.80;7.65;;;;;;;18.35;63.04;99060.59;5054389;28;20103;-65
2021/05/15 08:35:49;;;;;;;10.05;6.90;;;;;;;18.34;62.76;99070.09;5054410;28;20464;-66
2021/05/15 08:38:19;;;;;;;12.07;7.70;;;;;;;18.37;62.46;99064.81;5054127;28;20061;-66
2021/05/15 08:40:50;;;;;;;9.18;6.53;;;;;;;18.60;61.94;99063.84;5054041;28;20497;-65
2021/05/15 08:43:21;;;;;;;7.63;5.00;;;;;;;18.86;61.16;99065.31;5054307;28;20052;-65
2021/05/15 08:45:55;;;;;;;8.32;5.72;;;;;;;19.05;60.59;99063.59;5053698;28;20486;-66
2021/05/15 08:48:27;;;;;;;8.40;6.20;;;;;;;19.15;59.79;99049.31;5053906;28;20084;-66
2021/05/15 08:50:59;;;;;;;6.68;4.78;;;;;;;19.12;59.27;99063.22;5053123;28;20056;-65
2021/05/15 08:53:29;;;;;;;6.25;4.35;;;;;;;19.00;57.94;99065.53;5054057;28;20510;-66
2021/05/15 08:55:59;;;;;;;8.73;4.30;;;;;;;19.09;58.15;99059.94;5053867;28;20041;-65
2021/05/15 08:58:30;;;;;;;7.20;4.18;;;;;;;19.11;57.55;99063.28;5053776;28;20057;-66
2021/05/15 09:00:58;;;;;;;7.63;4.82;;;;;;;19.30;57.56;99053.78;5053712;28;20049;-65
2021/05/15 09:03:30;;;;;;;8.95;5.32;;;;;;;19.39;57.00;99064.59;5053506;28;20073;-66
2021/05/15 09:06:02;;;;;;;11.10;5.28;;;;;;;19.52;57.06;99059.69;5053628;28;20081;-66
2021/05/15 09:08:34;;;;;;;7.70;5.75;;;;;;;19.39;56.38;99056.81;5053826;28;20475;-65
2021/05/15 09:11:07;;;;;;;7.43;5.20;;;;;;;19.33;56.68;99064.00;5053573;28;20056;-65
2021/05/15 09:13:39;;;;;;;9.13;5.07;;;;;;;19.43;57.07;99057.53;5053123;28;20053;-66
2021/05/15 09:16:11;;;;;;;6.68;4.38;;;;;;;19.45;56.06;99058.28;5053624;28;20056;-66
2021/05/15 09:18:42;;;;;;;7.85;3.80;;;;;;;19.54;56.30;99050.09;5053797;28;20052;-66
2021/05/15 09:21:15;;;;;;;6.15;3.97;;;;;;;19.73;55.89;99053.47;5054110;28;20048;-66
2021/05/15 09:23:49;;;;;;;5.18;3.42;;;;;;;19.98;55.43;99032.44;5053640;28;20490;-66
2021/05/15 09:26:23;;;;;;;7.53;3.70;;;;;;;20.14;55.73;99041.09;5053365;28;20056;-66
2021/05/15 09:28:58;;;;;;;5.63;4.10;;;;;;;20.37;55.54;99034.81;5053278;28;20101;-67
2021/05/15 09:31:28;;;;;;;5.97;4.15;;;;;;;20.71;55.00;99043.38;5053443;28;20055;-67
2021/05/15 09:34:03;;;;;;;6.30;3.05;;;;;;;20.68;53.38;99024.53;5035746;28;20057;-66
2021/05/15 09:36:37;;;;;;;4.28;2.78;;;;;;;20.87;52.68;99035.63;5053653;28;20134;-67
2021/05/15 09:39:13;;;;;;;4.75;3.45;;;;;;;20.80;52.65;99034.28;5053465;28;20497;-64
2021/05/15 09:41:49;;;;;;;6.53;3.92;;;;;;;20.78;52.68;99036.09;5053291;28;20053;-66
2021/05/15 09:44:21;;;;;;;7.85;3.65;;;;;;;20.82;53.60;99023.81;5053359;28;20100;-66
2021/05/15 09:46:53;;;;;;;7.22;4.13;;;;;;;20.65;53.07;99022.09;5053172;28;20053;-66
2021/05/15 09:49:28;;;;;;;5.47;3.60;;;;;;;20.89;53.02;99012.19;5053307;28;20056;-64
2021/05/15 09:52:00;;;;;;;6.07;3.58;;;;;;;20.83;51.10;99012.53;5053188;28;20083;-65
2021/05/15 09:54:34;;;;;;;6.70;3.40;;;;;;;20.67;50.97;99017.66;5053083;28;20057;-66
2021/05/15 09:57:06;;;;;;;6.72;3.28;;;;;;;20.58;51.28;99012.97;5053045;28;20048;-67
2021/05/15 09:59:40;;;;;;;4.55;2.75;;;;;;;20.49;50.64;99003.06;5035856;28;20060;-65
2021/05/15 10:02:13;;;;;;;4.95;2.20;;;;;;;20.37;49.68;99004.53;5052857;28;20061;-65
2021/05/15 10:04:48;;;;;;;3.65;2.38;;;;;;;20.31;50.32;98998.81;5053475;28;20064;-65
2021/05/15 10:07:18;;;;;;;4.82;2.55;;;;;;;20.50;50.66;98999.56;5053155;28;20494;-66
2021/05/15 10:09:51;;;;;;;4.15;2.45;;;;;;;20.79;51.22;98996.28;5052958;28;20067;-66
2021/05/15 10:12:23;;;;;;;4.55;2.70;;;;;;;20.80;50.91;98997.97;5053110;28;20045;-66
2021/05/15 10:14:56;;;;;;;4.97;3.40;;;;;;;20.91;50.94;99000.81;5035311;28;20057;-66
2021/05/15 10:17:28;;;;;;;5.30;2.67;;;;;;;20.88;49.63;99000.97;5053134;28;20048;-66
2021/05/15 10:20:06;;;;;;;3.75;2.65;;;;;;;20.55;49.78;98989.78;5053054;28;20045;-65
2021/05/15 10:22:39;;;;;;;3.75;2.53;;;;;;;20.46;50.12;98992.84;5052860;28;20056;-66
2021/05/15 10:25:14;;;;;;;4.15;2.78;;;;;;;20.60;49.67;98995.56;5053619;28;20548;-65
2021/05/15 10:27:43;;;;;;;5.95;3.03;;;;;;;20.87;49.70;98993.28;5056272;28;20055;-66
2021/05/15 10:30:19;;;;;;;3.30;2.13;;;;;;;21.18;50.05;98988.13;5056751;28;20047;-65
2021/05/15 10:32:56;;;;;;;4.70;2.60;;;;;;;21.25;49.53;98995.50;5056798;28;20052;-65
2021/05/15 10:35:31;;;;;;;4.38;1.95;;;;;;;21.05;49.79;98993.16;5056368;28;20048;-66
2021/05/15 10:38:06;;;;;;;3.35;2.30;;;;;;;20.99;49.79;98997.81;5056384;28;20064;-65
2021/05/15 10:40:46;;;;;;;3.72;2.60;;;;;;;20.75;49.40;98984.41;5056293;28;20049;-66
2021/05/15 10:43:33;;;;;;;4.43;2.28;;;;;;;20.60;49.16;98988.63;5056333;28;20083;-66
2021/05/15 10:46:19;;;;;;;3.92;2.13;;;;;;;20.34;48.52;98990.91;5056103;28;20049;-65
2021/05/15 10:48:59;;;;;;;3.85;2.00;;;;;;;20.16;48.63;98989.19;5056158;28;20410;-66
2021/05/15 10:51:34;;;;;;;5.82;2.83;;;;;;;20.20;49.92;98981.22;5055169;28;20060;-66
2021/05/15 10:54:08;;;;;;;3.83;2.47;;;;;;;20.06;49.77;98974.13;5056236;28;20080;-65
2021/05/15 10:57:00;;;;;;;3.60;2.55;;;;;;;20.20;49.97;98970.84;5056070;28;20137;-65
2021/05/15 10:59:29;;;;;;;4.35;2.13;;;;;;;20.27;50.38;98974.84;5056036;28;20053;-66
2021/05/15 11:01:59;;;;;;;3.35;1.92;;;;;;;20.44;50.43;98968.78;5055815;28;20040;-66
2021/05/15 11:05:00;;;;;;;;;;;;;;;20.53;50.58;98957.91;5056102;28;20068;-65
2021/05/15 11:07:35;;;;;;;3.13;1.90;;;;;;;20.43;51.04;98961.91;5052444;28;19927;-65
2021/05/15 11:10:08;;;;;;;3.70;2.15;;;;;;;20.31;51.32;98957.34;5055696;28;20561;-65
2021/05/15 11:12:42;;;;;;;4.78;1.83;;;;;;;20.30;51.91;98950.50;5055620;28;20056;-66
2021/05/15 11:15:15;;;;;;;4.10;2.20;;;;;;;20.51;52.14;98957.16;5055707;28;20057;-66
2021/05/15 11:18:06;;;;;;;3.97;2.10;;;;;;;20.81;51.34;98952.94;5055738;28;20056;-65
2021/05/15 11:20:43;;;;;;;5.28;2.10;;;;;;;20.90;50.67;98952.41;5055524;28;20049;-65
2021/05/15 11:23:14;;;;;;;4.38;2.35;;;;;;;20.50;49.52;98952.88;5055214;28;20053;-66
2021/05/15 11:25:54;;;;;;;3.90;2.33;;;;;;;20.41;49.66;98954.22;5056111;28;20064;-65
2021/05/15 11:28:24;;;;;;;3.83;2.30;;;;;;;20.49;50.38;98946.03;5055493;28;20140;-65
2021/05/15 11:30:59;;;;;;;3.63;2.30;;;;;;;20.76;51.17;98949.75;5055699;28;20107;-64
2021/05/15 11:33:29;;;;;;;3.25;2.03;;;;;;;20.94;51.64;98933.19;5055353;28;20550;-65
2021/05/15 11:35:59;;;;;;;5.13;2.50;;;;;;;20.90;51.53;98936.84;5054637;28;20498;-65
2021/05/15 11:38:30;;;;;;;3.17;1.90;;;;;;;20.65;51.71;98939.13;5055299;28;20510;-65
2021/05/15 11:41:05;;;;;;;6.18;2.40;;;;;;;20.64;51.88;98940.03;5055256;28;20123;-65
2021/05/15 11:43:36;;;;;;;4.75;2.72;;;;;;;20.68;51.58;98937.19;5061850;28;20052;-65
2021/05/15 11:46:09;;;;;;;3.53;2.33;;;;;;;20.50;52.36;98934.72;5059687;28;20060;-65
2021/05/15 11:48:40;;;;;;;5.15;2.53;;;;;;;20.53;53.46;98937.16;5054585;28;20098;-65
2021/05/15 11:51:11;;;;;;;4.85;2.58;;;;;;;20.60;53.09;98928.16;5053409;28;20099;-65
2021/05/15 11:53:42;;;;;;;4.93;2.40;;;;;;;20.64;53.43;98934.84;5035029;28;20458;-65